createdAt,value
2022-08-11T00:02:23.897Z,76.20
2022-08-11T00:04:51.253Z,76.10
2022-08-11T00:07:19.808Z,75.70
2022-08-11T00:09:47.287Z,75.80
2022-08-11T00:12:18.075Z,75.90
2022-08-11T00:14:46.364Z,76.20
2022-08-11T00:17:14.771Z,76.10
2022-08-11T00:20:11.684Z,76.70
2022-08-11T00:22:33.234Z,76.90
2022-08-11T00:25:08.808Z,77.00
2022-08-11T00:27:39.488Z,76.30
2022-08-11T00:30:08.293Z,76.20
2022-08-11T00:32:37.722Z,77.00
2022-08-11T00:35:53.663Z,76.40
2022-08-11T00:37:56.562Z,76.90
2022-08-11T00:40:28.428Z,76.70
2022-08-11T00:43:21.462Z,76.90
2022-08-11T00:46:09.096Z,76.70
2022-08-11T00:48:45.171Z,77.20
2022-08-11T00:51:23.700Z,76.60
2022-08-11T00:54:02.908Z,77.20
2022-08-11T00:57:03.467Z,77.20
2022-08-11T01:00:19.711Z,77.70
2022-08-11T01:03:09.746Z,78.10
2022-08-11T01:05:56.447Z,77.40
2022-08-11T01:09:22.017Z,77.70
2022-08-11T01:12:23.186Z,78.50
2022-08-11T01:15:31.441Z,77.90
2022-08-11T01:18:31.178Z,78.30
2022-08-11T01:21:52.869Z,78.40
2022-08-11T01:25:01.011Z,78.20
2022-08-11T01:28:14.805Z,77.70
2022-08-11T01:31:16.479Z,78.20
2022-08-11T01:34:35.741Z,79.10
2022-08-11T01:37:16.108Z,78.10
2022-08-11T01:40:25.537Z,78.10
2022-08-11T01:43:28.633Z,78.00
2022-08-11T01:45:59.898Z,78.30
2022-08-11T01:48:37.992Z,78.50
2022-08-11T01:51:30.135Z,78.80
2022-08-11T01:54:04.474Z,79.00
2022-08-11T01:56:58.184Z,78.70
2022-08-11T01:59:28.819Z,79.00
2022-08-11T02:02:21.603Z,78.90
2022-08-11T02:04:57.193Z,78.70
2022-08-11T02:07:38.692Z,78.90
2022-08-11T02:10:38.524Z,78.80
2022-08-11T02:13:15.327Z,78.90
2022-08-11T02:15:47.483Z,78.70
2022-08-11T02:18:44.777Z,79.10
2022-08-11T02:21:37.882Z,79.50
2022-08-11T02:24:13.419Z,79.90
2022-08-11T02:26:46.510Z,80.10
2022-08-11T02:29:19.120Z,80.10
2022-08-11T02:32:28.747Z,80.20
2022-08-11T02:35:04.901Z,80.30
2022-08-11T02:37:45.091Z,80.30
2022-08-11T02:40:23.242Z,80.50
2022-08-11T02:43:02.908Z,80.90
2022-08-11T02:45:46.265Z,81.00
2022-08-11T02:48:43.557Z,81.10
2022-08-11T02:51:21.981Z,81.20
2022-08-11T02:54:00.892Z,81.30
2022-08-11T02:56:44.451Z,81.70
2022-08-11T02:59:45.765Z,82.00
2022-08-11T03:02:31.452Z,82.10
2022-08-11T03:05:08.156Z,82.40
2022-08-11T03:08:07.388Z,82.40
2022-08-11T03:10:42.769Z,82.40
2022-08-11T03:13:34.547Z,82.60
2022-08-11T03:16:34.571Z,82.70
2022-08-11T03:19:13.935Z,82.80
2022-08-11T03:22:02.665Z,83.20
2022-08-11T03:24:39.149Z,83.50
2022-08-11T03:27:11.073Z,83.60
2022-08-11T03:29:44.822Z,84.00
2022-08-11T03:32:26.387Z,83.90
2022-08-11T03:34:56.794Z,84.20
2022-08-11T03:37:50.366Z,84.00
2022-08-11T03:41:05.943Z,84.00
2022-08-11T03:44:04.542Z,84.20
2022-08-11T03:46:56.403Z,84.40
2022-08-11T03:49:34.680Z,84.70
2022-08-11T03:52:11.427Z,85.00
2022-08-11T03:54:50.586Z,85.00
2022-08-11T03:57:50.126Z,85.00
2022-08-11T04:00:35.084Z,84.90
2022-08-11T04:03:31.367Z,85.10
2022-08-11T04:06:36.330Z,85.20
2022-08-11T04:09:46.334Z,85.50
2022-08-11T04:12:36.774Z,85.60
2022-08-11T04:15:55.798Z,85.90
2022-08-11T04:18:53.006Z,85.70
2022-08-11T04:22:10.664Z,85.90
2022-08-11T04:25:07.321Z,85.90
2022-08-11T04:28:29.180Z,86.60
2022-08-11T04:31:10.115Z,86.30
2022-08-11T04:34:08.214Z,87.00
2022-08-11T04:37:34.360Z,87.40
2022-08-11T04:40:40.096Z,86.80
2022-08-11T04:44:05.616Z,87.10
2022-08-11T04:51:22.624Z,87.20
2022-08-11T04:54:19.063Z,88.00
2022-08-11T04:57:09.095Z,87.40
2022-08-11T05:00:25.225Z,88.40
2022-08-11T05:03:22.303Z,87.80
2022-08-11T05:06:27.172Z,88.50
2022-08-11T05:09:33.809Z,87.70
2022-08-11T05:12:20.747Z,87.60
2022-08-11T05:15:09.353Z,88.20
2022-08-11T05:17:59.113Z,87.00
2022-08-11T05:20:46.549Z,87.60
2022-08-11T05:23:33.240Z,87.00
2022-08-11T05:26:46.382Z,87.50
2022-08-11T05:29:45.079Z,87.40
2022-08-11T05:32:36.558Z,88.10
2022-08-11T05:35:07.407Z,87.30
2022-08-11T05:37:41.114Z,86.70
2022-08-11T05:40:29.501Z,86.40
2022-08-11T05:43:17.852Z,86.40
2022-08-11T05:46:15.774Z,85.80
2022-08-11T05:49:02.392Z,85.90
2022-08-11T05:51:54.818Z,86.20
2022-08-11T05:54:45.911Z,85.80
2022-08-11T05:57:44.088Z,85.70
2022-08-11T06:00:11.780Z,85.40
2022-08-11T06:02:44.606Z,85.30
2022-08-11T06:05:12.757Z,85.20
2022-08-11T06:07:49.011Z,85.30
2022-08-11T06:10:27.380Z,85.00
2022-08-11T06:12:55.924Z,85.00
2022-08-11T06:15:24.696Z,84.40
2022-08-11T06:17:55.565Z,84.50
2022-08-11T06:20:24.086Z,84.30
2022-08-11T06:22:57.836Z,84.10
2022-08-11T06:25:31.047Z,84.20
2022-08-11T06:27:58.531Z,84.30
2022-08-11T06:30:35.195Z,84.30
2022-08-11T06:33:06.787Z,85.20
2022-08-11T06:35:45.705Z,84.20
2022-08-11T06:38:16.833Z,83.90
2022-08-11T06:41:10.887Z,84.10
2022-08-11T06:43:55.503Z,83.90
2022-08-11T06:46:28.689Z,84.20
2022-08-11T06:48:58.148Z,83.30
2022-08-11T06:51:27.238Z,83.10
2022-08-11T06:54:04.141Z,83.00
2022-08-11T06:57:18.588Z,83.20
2022-08-11T07:00:00.150Z,82.70
2022-08-11T07:02:33.808Z,82.00
2022-08-11T07:05:08.143Z,82.30
2022-08-11T07:08:39.333Z,82.00
2022-08-11T07:11:55.593Z,81.90
2022-08-11T07:14:45.303Z,81.30
2022-08-11T07:17:17.344Z,80.90
2022-08-11T07:20:08.956Z,81.80
2022-08-11T07:22:56.930Z,80.90
2022-08-11T07:25:43.910Z,80.90
2022-08-11T07:28:35.962Z,80.10
2022-08-11T07:31:08.162Z,80.40
2022-08-11T07:34:08.018Z,80.10
2022-08-11T07:36:32.319Z,80.10
2022-08-11T07:39:01.575Z,80.00
2022-08-11T07:41:32.733Z,79.20
2022-08-11T07:44:09.173Z,79.20
2022-08-11T07:46:58.464Z,78.80
2022-08-11T07:49:45.640Z,78.10
2022-08-11T07:52:29.462Z,77.70
2022-08-11T07:55:00.146Z,77.60
2022-08-11T07:58:13.712Z,77.10
2022-08-11T08:00:55.691Z,76.20
2022-08-11T08:03:54.104Z,76.30
2022-08-11T08:06:41.230Z,75.90
2022-08-11T08:09:28.106Z,75.80
2022-08-11T08:12:15.726Z,75.30
2022-08-11T08:15:01.664Z,75.40
2022-08-11T08:18:09.744Z,74.60
2022-08-11T08:20:37.890Z,74.50
2022-08-11T08:23:06.404Z,74.80
2022-08-11T08:25:35.040Z,74.60
2022-08-11T08:28:07.316Z,73.10
2022-08-11T08:30:51.111Z,72.80
2022-08-11T08:33:21.655Z,72.40
2022-08-11T08:35:54.311Z,72.90
2022-08-11T08:38:22.730Z,73.10
2022-08-11T08:40:56.000Z,71.30
2022-08-11T08:43:25.286Z,71.40
2022-08-11T08:45:56.391Z,72.60
2022-08-11T08:48:25.907Z,71.90
2022-08-11T08:51:15.267Z,70.80
2022-08-11T08:53:52.332Z,71.40
2022-08-11T08:56:28.142Z,70.60
2022-08-11T08:58:59.601Z,70.30
2022-08-11T09:01:29.383Z,70.20
2022-08-11T09:04:04.238Z,69.80
2022-08-11T09:06:39.847Z,68.80
2022-08-11T09:09:08.943Z,68.40
2022-08-11T09:11:55.090Z,68.80
2022-08-11T09:14:25.344Z,67.70
2022-08-11T09:16:53.597Z,67.60
2022-08-11T09:19:21.560Z,65.70
2022-08-11T09:22:09.144Z,64.90
2022-08-11T09:24:58.191Z,65.30
2022-08-11T09:27:26.461Z,65.70
2022-08-11T09:29:55.679Z,65.60
2022-08-11T09:32:23.463Z,64.60
2022-08-11T09:34:52.093Z,63.60
2022-08-11T09:37:56.026Z,62.10
2022-08-11T09:40:30.638Z,62.30
2022-08-11T09:43:17.773Z,62.20
2022-08-11T09:45:54.292Z,60.60
2022-08-11T09:48:24.566Z,57.60
2022-08-11T09:50:53.952Z,55.30
2022-08-11T09:53:37.459Z,53.40
2022-08-11T09:56:30.301Z,52.30
2022-08-11T09:58:58.675Z,52.30
2022-08-11T10:01:30.706Z,51.40
2022-08-11T10:04:01.110Z,51.30
2022-08-11T10:06:48.288Z,49.80
2022-08-11T10:09:24.958Z,50.40
2022-08-11T10:11:57.897Z,49.00
2022-08-11T10:14:45.095Z,48.50
2022-08-11T10:17:16.936Z,48.30
2022-08-11T10:20:04.257Z,48.20
2022-08-11T10:22:53.296Z,47.80
2022-08-11T10:25:39.702Z,47.00
2022-08-11T10:28:32.743Z,46.80
2022-08-11T10:31:16.488Z,46.70
2022-08-11T10:34:03.384Z,46.80
2022-08-11T10:36:32.714Z,46.50
2022-08-11T10:39:02.075Z,45.80
2022-08-11T10:42:06.625Z,45.70
2022-08-11T10:44:38.407Z,45.50
2022-08-11T10:47:25.035Z,45.00
2022-08-11T10:50:12.764Z,44.90
2022-08-11T10:52:59.723Z,45.70
2022-08-11T10:55:46.136Z,45.00
2022-08-11T10:58:32.381Z,44.60
2022-08-11T11:01:00.723Z,45.10
2022-08-11T11:03:31.174Z,45.00
2022-08-11T11:06:12.757Z,44.80
2022-08-11T11:09:04.199Z,45.40
2022-08-11T11:11:55.620Z,45.00
2022-08-11T11:14:45.748Z,44.70
2022-08-11T11:17:21.988Z,45.10
2022-08-11T11:19:54.067Z,45.00
2022-08-11T11:22:38.847Z,44.70
2022-08-11T11:25:17.738Z,44.20
2022-08-11T11:28:10.170Z,43.10
2022-08-11T11:30:45.706Z,44.70
2022-08-11T11:33:20.927Z,43.80
2022-08-11T11:35:56.845Z,44.60
2022-08-11T11:38:25.524Z,44.30
2022-08-11T11:41:13.469Z,44.60
2022-08-11T11:43:41.877Z,44.00
2022-08-11T11:46:10.657Z,43.70
2022-08-11T11:48:37.770Z,44.40
2022-08-11T11:51:05.602Z,44.40
2022-08-11T11:53:35.040Z,43.90
2022-08-11T11:56:03.453Z,44.90
2022-08-11T11:58:48.777Z,44.20
2022-08-11T12:01:16.140Z,43.50
2022-08-11T12:03:45.217Z,43.80
2022-08-11T12:06:14.247Z,43.40
2022-08-11T12:08:43.629Z,43.70
2022-08-11T12:11:31.021Z,43.70
2022-08-11T12:14:00.744Z,44.40
2022-08-11T12:16:33.465Z,43.60
2022-08-11T12:19:06.116Z,43.80
2022-08-11T12:21:35.963Z,43.50
2022-08-11T12:24:29.225Z,43.10
2022-08-11T12:27:17.851Z,42.40
2022-08-11T12:29:52.847Z,42.00
2022-08-11T12:32:24.424Z,42.20
2022-08-11T12:34:51.844Z,41.10
2022-08-11T12:37:23.683Z,41.90
2022-08-11T12:40:43.830Z,42.70
2022-08-11T12:43:24.285Z,43.60
2022-08-11T12:46:07.638Z,43.10
2022-08-11T12:48:59.795Z,42.80
2022-08-11T12:52:00.868Z,43.60
2022-08-11T12:54:46.053Z,43.50
2022-08-11T12:57:36.872Z,43.10
2022-08-11T13:00:24.650Z,43.50
2022-08-11T13:03:10.896Z,43.90
2022-08-11T13:05:40.166Z,42.40
2022-08-11T13:08:13.912Z,43.00
2022-08-11T13:11:00.627Z,42.40
2022-08-11T13:13:54.377Z,43.60
2022-08-11T13:16:17.776Z,43.90
2022-08-11T13:18:45.420Z,43.30
2022-08-11T13:21:20.805Z,42.60
2022-08-11T13:23:59.423Z,42.20
2022-08-11T13:26:47.101Z,43.40
2022-08-11T13:29:23.960Z,43.20
2022-08-11T13:31:52.544Z,43.50
2022-08-11T13:34:21.583Z,42.30
2022-08-11T13:36:51.947Z,42.50
2022-08-11T13:39:20.518Z,42.00
2022-08-11T13:41:49.122Z,42.50
2022-08-11T13:44:21.832Z,42.40
2022-08-11T13:46:55.308Z,41.60
2022-08-11T13:49:23.281Z,42.10
2022-08-11T13:51:50.944Z,42.40
2022-08-11T13:54:21.243Z,43.60
2022-08-11T13:56:52.850Z,43.40
2022-08-11T13:59:24.094Z,42.70
2022-08-11T14:02:22.052Z,42.30
2022-08-11T14:04:55.433Z,41.90
2022-08-11T14:07:24.935Z,43.00
2022-08-11T14:09:58.024Z,43.10
2022-08-11T14:12:45.545Z,43.70
2022-08-11T14:15:19.963Z,44.30
2022-08-11T14:17:53.743Z,43.70
2022-08-11T14:20:38.501Z,43.90
2022-08-11T14:23:11.144Z,44.50
2022-08-11T14:26:02.325Z,44.00
2022-08-11T14:28:37.369Z,44.00
2022-08-11T14:31:09.564Z,44.30
2022-08-11T14:34:00.044Z,45.10
2022-08-11T14:36:28.667Z,44.10
2022-08-11T14:38:56.462Z,44.30
2022-08-11T14:42:09.833Z,43.80
2022-08-11T14:44:52.832Z,43.50
2022-08-11T14:47:23.249Z,43.80
2022-08-11T14:50:09.335Z,43.90
2022-08-11T14:52:43.274Z,44.00
2022-08-11T14:55:30.743Z,44.90
2022-08-11T14:57:58.425Z,44.40
2022-08-11T15:00:26.567Z,44.80
2022-08-11T15:03:10.489Z,45.60
2022-08-11T15:05:55.910Z,45.40
2022-08-11T15:08:47.039Z,45.20
2022-08-11T15:11:34.884Z,46.00
2022-08-11T15:14:03.790Z,45.70
2022-08-11T15:16:49.697Z,46.20
2022-08-11T15:19:19.526Z,46.80
2022-08-11T15:22:06.782Z,46.50
2022-08-11T15:24:36.305Z,46.30
2022-08-11T15:27:27.253Z,46.20
2022-08-11T15:30:21.002Z,46.20
2022-08-11T15:33:22.980Z,45.10
2022-08-11T15:36:09.283Z,45.40
2022-08-11T15:38:41.428Z,46.10
2022-08-11T15:41:28.630Z,46.30
2022-08-11T15:44:15.079Z,45.70
2022-08-11T15:46:45.728Z,46.90
2022-08-11T15:49:21.702Z,46.40
2022-08-11T15:51:57.709Z,46.90
2022-08-11T15:54:32.260Z,46.60
2022-08-11T15:57:02.278Z,46.30
2022-08-11T15:59:49.978Z,46.30
2022-08-11T16:02:38.337Z,46.40
2022-08-11T16:05:09.935Z,46.40
2022-08-11T16:07:40.891Z,46.60
2022-08-11T16:10:15.623Z,46.80
2022-08-11T16:13:05.541Z,46.90
2022-08-11T16:15:52.836Z,47.20
2022-08-11T16:18:22.256Z,47.70
2022-08-11T16:20:51.866Z,47.40
2022-08-11T16:23:19.905Z,47.70
2022-08-11T16:27:03.324Z,48.00
2022-08-11T16:28:40.617Z,48.40
2022-08-11T16:31:10.821Z,48.90
2022-08-11T16:33:50.410Z,48.90
2022-08-11T16:36:38.246Z,48.60
2022-08-11T16:39:06.356Z,48.90
2022-08-11T16:41:55.779Z,48.60
2022-08-11T16:44:42.789Z,48.90
2022-08-11T16:47:15.876Z,49.00
2022-08-11T16:49:52.861Z,49.00
2022-08-11T16:52:21.183Z,48.90
2022-08-11T16:54:48.415Z,48.60
2022-08-11T16:57:41.393Z,49.40
2022-08-11T17:00:12.500Z,49.20
2022-08-11T17:03:03.219Z,49.30
2022-08-11T17:05:54.146Z,49.50
2022-08-11T17:08:56.999Z,49.30
2022-08-11T17:11:46.088Z,49.30
2022-08-11T17:14:36.014Z,49.10
2022-08-11T17:17:05.052Z,49.20
2022-08-11T17:20:43.423Z,49.70
2022-08-11T17:22:41.940Z,50.30
2022-08-11T17:25:10.180Z,49.60
2022-08-11T17:27:38.547Z,50.20
2022-08-11T17:30:08.864Z,50.60
2022-08-11T17:33:00.599Z,50.40
2022-08-11T17:35:30.430Z,50.30
2022-08-11T17:38:00.959Z,50.10
2022-08-11T17:40:29.244Z,50.60
2022-08-11T17:43:16.935Z,49.90
2022-08-11T17:46:05.101Z,50.30
2022-08-11T17:48:36.063Z,50.90
2022-08-11T17:51:37.943Z,50.80
2022-08-11T17:54:25.739Z,50.30
2022-08-11T17:57:21.326Z,50.50
2022-08-11T17:59:55.247Z,50.60
2022-08-11T18:02:46.686Z,50.90
2022-08-11T18:05:15.783Z,50.60
2022-08-11T18:08:03.165Z,51.00
2022-08-11T18:10:51.114Z,51.30
2022-08-11T18:13:40.889Z,51.10
2022-08-11T18:16:26.723Z,50.80
2022-08-11T18:19:13.534Z,51.00
2022-08-11T18:22:15.385Z,51.00
2022-08-11T18:25:07.062Z,51.60
2022-08-11T18:27:54.953Z,51.70
2022-08-11T18:30:41.928Z,52.00
2022-08-11T18:36:39.592Z,52.40
2022-08-11T18:39:28.471Z,52.40
2022-08-11T18:42:18.879Z,52.70
2022-08-11T18:45:17.927Z,52.50
2022-08-11T18:48:06.160Z,52.70
2022-08-11T18:51:31.004Z,52.90
2022-08-11T18:54:02.823Z,53.10
2022-08-11T18:56:49.666Z,54.10
2022-08-11T18:59:38.796Z,54.00
2022-08-11T19:02:25.733Z,54.90
2022-08-11T19:05:11.893Z,55.50
2022-08-11T19:07:59.041Z,55.80
2022-08-11T19:10:46.238Z,55.50
2022-08-11T19:13:33.088Z,56.40
2022-08-11T19:16:20.337Z,56.40
2022-08-11T19:19:08.714Z,56.80
2022-08-11T19:21:55.565Z,57.00
2022-08-11T19:24:42.121Z,56.90
2022-08-11T19:27:31.878Z,57.20
2022-08-11T19:30:19.364Z,57.30
2022-08-11T19:33:05.867Z,57.70
2022-08-11T19:35:52.164Z,58.00
2022-08-11T19:38:39.470Z,58.10
2022-08-11T19:41:57.681Z,58.10
2022-08-11T19:44:33.963Z,58.30
2022-08-11T19:47:20.869Z,58.30
2022-08-11T19:50:08.229Z,58.50
2022-08-11T19:52:56.027Z,58.50
2022-08-11T19:55:43.784Z,58.30
2022-08-11T19:58:30.354Z,58.50
2022-08-11T20:01:17.740Z,58.70
2022-08-11T20:04:03.912Z,58.70
2022-08-11T20:06:51.079Z,58.70
2022-08-11T20:10:05.565Z,59.20
2022-08-11T20:12:46.057Z,59.50
2022-08-11T20:15:33.471Z,59.90
2022-08-11T20:18:21.503Z,59.90
2022-08-11T20:21:24.962Z,60.00
2022-08-11T20:24:15.227Z,59.90
2022-08-11T20:27:00.953Z,59.80
2022-08-11T20:29:48.737Z,59.90
2022-08-11T20:32:36.389Z,59.80
2022-08-11T20:35:25.480Z,60.20
2022-08-11T20:38:13.882Z,60.60
2022-08-11T20:41:00.548Z,61.10
2022-08-11T20:44:05.661Z,61.80
2022-08-11T20:46:54.890Z,62.70
2022-08-11T20:49:51.653Z,62.60
2022-08-11T20:52:44.547Z,62.90
2022-08-11T20:55:51.748Z,62.10
2022-08-11T21:01:46.069Z,62.80
2022-08-11T21:04:32.391Z,62.60
2022-08-11T21:10:30.224Z,63.00
2022-08-11T21:13:25.278Z,63.70
2022-08-11T21:16:26.605Z,64.00
2022-08-11T21:19:15.842Z,64.20
2022-08-11T21:22:03.804Z,64.40
2022-08-11T21:24:51.894Z,64.30
2022-08-11T21:27:40.015Z,64.90
2022-08-11T21:30:26.731Z,65.00
2022-08-11T21:33:13.307Z,67.20
2022-08-11T21:35:59.200Z,66.70
2022-08-11T21:38:46.107Z,66.70
2022-08-11T21:41:32.767Z,66.00
2022-08-11T21:44:20.676Z,64.70
2022-08-11T21:47:07.234Z,65.60
2022-08-11T21:49:55.481Z,65.90
2022-08-11T21:52:41.564Z,66.10
2022-08-11T21:55:29.255Z,64.70
2022-08-11T21:58:15.287Z,65.00
2022-08-11T22:01:03.566Z,64.10
2022-08-11T22:03:50.242Z,64.00
2022-08-11T22:06:36.703Z,64.40
2022-08-11T22:09:22.433Z,64.90
2022-08-11T22:12:33.565Z,65.10
2022-08-11T22:15:14.474Z,65.00
2022-08-11T22:18:01.247Z,65.80
2022-08-11T22:20:48.198Z,66.00
2022-08-11T22:23:36.988Z,66.30
2022-08-11T22:26:24.300Z,66.20
2022-08-11T22:29:09.843Z,66.80
2022-08-11T22:31:56.243Z,66.70
2022-08-11T22:34:52.635Z,67.20
2022-08-11T22:37:40.309Z,67.50
2022-08-11T22:40:28.154Z,68.30
2022-08-11T22:43:13.556Z,68.20
2022-08-11T22:45:58.924Z,69.10
2022-08-11T22:48:47.240Z,69.90
2022-08-11T22:51:36.507Z,69.10
2022-08-11T22:54:23.698Z,69.20
2022-08-11T22:57:09.987Z,69.60
2022-08-11T22:59:56.246Z,70.50
2022-08-11T23:02:44.576Z,70.90
2022-08-11T23:05:32.797Z,70.90
2022-08-11T23:08:20.417Z,71.00
2022-08-11T23:11:08.611Z,71.10
2022-08-11T23:13:54.362Z,71.10
2022-08-11T23:16:40.421Z,70.30
2022-08-11T23:20:00.280Z,70.40
2022-08-11T23:22:36.992Z,70.50
2022-08-11T23:25:37.563Z,70.80
2022-08-11T23:28:24.443Z,71.00
2022-08-11T23:31:13.704Z,71.00
2022-08-11T23:34:01.570Z,71.10
2022-08-11T23:36:47.840Z,71.40
2022-08-11T23:39:35.015Z,72.00
2022-08-11T23:42:22.714Z,72.90
2022-08-11T23:45:10.124Z,73.30
2022-08-11T23:47:57.890Z,73.20
2022-08-11T23:50:43.791Z,73.80
2022-08-11T23:53:31.105Z,74.40
2022-08-11T23:56:17.041Z,74.40
2022-08-11T23:59:09.654Z,74.10
